sensor_id;sensor_type;location;lat;lon;timestamp;pressure;altitude;pressure_sealevel;temperature;humidity
71976;BME280;68326;52.124;5.424;2023-08-12T00:00:05;101790.50;;;19.35;100.00
71976;BME280;68326;52.124;5.424;2023-08-12T00:02:42;101794.72;;;19.38;100.00
71976;BME280;68326;52.124;5.424;2023-08-12T00:05:10;101797.59;;;19.34;100.00
71976;BME280;68326;52.124;5.424;2023-08-12T00:07:40;101803.69;;;19.35;100.00
71976;BME280;68326;52.124;5.424;2023-08-12T00:10:09;101802.84;;;19.34;100.00
71976;BME280;68326;52.124;5.424;2023-08-12T00:12:37;101789.66;;;19.34;100.00
71976;BME280;68326;52.124;5.424;2023-08-12T00:15:05;101788.59;;;19.37;100.00
71976;BME280;68326;52.124;5.424;2023-08-12T00:17:34;101800.13;;;19.36;100.00
71976;BME280;68326;52.124;5.424;2023-08-12T00:20:03;101795.69;;;19.37;100.00
71976;BME280;68326;52.124;5.424;2023-08-12T00:22:33;101795.34;;;19.41;100.00
71976;BME280;68326;52.124;5.424;2023-08-12T00:25:00;101785.72;;;19.40;100.00
71976;BME280;68326;52.124;5.424;2023-08-12T00:27:27;101787.66;;;19.38;100.00
71976;BME280;68326;52.124;5.424;2023-08-12T00:29:53;101792.19;;;19.36;100.00
71976;BME280;68326;52.124;5.424;2023-08-12T00:32:20;101783.31;;;19.37;100.00
71976;BME280;68326;52.124;5.424;2023-08-12T00:34:46;101781.75;;;19.34;100.00
71976;BME280;68326;52.124;5.424;2023-08-12T00:37:13;101776.66;;;19.31;100.00
71976;BME280;68326;52.124;5.424;2023-08-12T00:39:41;101772.38;;;19.30;100.00
71976;BME280;68326;52.124;5.424;2023-08-12T00:42:08;101772.56;;;19.27;100.00
71976;BME280;68326;52.124;5.424;2023-08-12T00:44:34;101765.72;;;19.25;100.00
71976;BME280;68326;52.124;5.424;2023-08-12T00:47:01;101764.16;;;19.22;100.00
71976;BME280;68326;52.124;5.424;2023-08-12T00:49:28;101759.84;;;19.21;100.00
71976;BME280;68326;52.124;5.424;2023-08-12T00:51:54;101751.28;;;19.18;100.00
71976;BME280;68326;52.124;5.424;2023-08-12T00:54:22;101756.69;;;19.16;100.00
71976;BME280;68326;52.124;5.424;2023-08-12T00:56:49;101747.91;;;19.15;100.00
71976;BME280;68326;52.124;5.424;2023-08-12T00:59:17;101745.38;;;19.14;100.00
71976;BME280;68326;52.124;5.424;2023-08-12T01:01:44;101751.63;;;19.13;100.00
71976;BME280;68326;52.124;5.424;2023-08-12T01:04:11;101744.66;;;19.12;100.00
71976;BME280;68326;52.124;5.424;2023-08-12T01:06:37;101740.44;;;19.09;100.00
71976;BME280;68326;52.124;5.424;2023-08-12T01:09:05;101741.41;;;19.08;100.00
71976;BME280;68326;52.124;5.424;2023-08-12T01:14:28;101730.88;;;19.08;100.00
71976;BME280;68326;52.124;5.424;2023-08-12T01:17:01;101735.50;;;19.05;100.00
71976;BME280;68326;52.124;5.424;2023-08-12T01:19:36;101731.31;;;19.02;100.00
71976;BME280;68326;52.124;5.424;2023-08-12T01:22:06;101734.97;;;19.00;100.00
71976;BME280;68326;52.124;5.424;2023-08-12T01:24:38;101729.09;;;18.96;100.00
71976;BME280;68326;52.124;5.424;2023-08-12T01:27:06;101728.38;;;18.94;100.00
71976;BME280;68326;52.124;5.424;2023-08-12T01:29:34;101725.09;;;18.90;100.00
71976;BME280;68326;52.124;5.424;2023-08-12T01:32:08;101718.88;;;18.91;100.00
71976;BME280;68326;52.124;5.424;2023-08-12T01:34:50;101723.28;;;18.91;100.00
71976;BME280;68326;52.124;5.424;2023-08-12T01:37:29;101716.56;;;18.87;100.00
71976;BME280;68326;52.124;5.424;2023-08-12T01:39:59;101710.03;;;18.80;100.00
71976;BME280;68326;52.124;5.424;2023-08-12T01:42:27;101708.38;;;18.79;100.00
71976;BME280;68326;52.124;5.424;2023-08-12T01:44:55;101702.22;;;18.78;100.00
71976;BME280;68326;52.124;5.424;2023-08-12T01:47:22;101700.53;;;18.77;100.00
71976;BME280;68326;52.124;5.424;2023-08-12T01:49:48;101701.38;;;18.78;100.00
71976;BME280;68326;52.124;5.424;2023-08-12T01:52:15;101700.47;;;18.79;100.00
71976;BME280;68326;52.124;5.424;2023-08-12T01:54:41;101693.38;;;18.79;100.00
71976;BME280;68326;52.124;5.424;2023-08-12T01:57:08;101695.06;;;18.80;100.00
71976;BME280;68326;52.124;5.424;2023-08-12T01:59:35;101690.81;;;18.78;100.00
71976;BME280;68326;52.124;5.424;2023-08-12T02:02:02;101688.19;;;18.78;100.00
71976;BME280;68326;52.124;5.424;2023-08-12T02:04:30;101688.28;;;18.76;100.00
71976;BME280;68326;52.124;5.424;2023-08-12T02:06:57;101683.97;;;18.75;100.00
71976;BME280;68326;52.124;5.424;2023-08-12T02:09:23;101680.38;;;18.76;100.00
71976;BME280;68326;52.124;5.424;2023-08-12T02:11:50;101679.44;;;18.77;100.00
71976;BME280;68326;52.124;5.424;2023-08-12T02:14:16;101675.00;;;18.78;100.00
71976;BME280;68326;52.124;5.424;2023-08-12T02:16:43;101675.00;;;18.78;100.00
71976;BME280;68326;52.124;5.424;2023-08-12T02:19:09;101678.28;;;18.81;100.00
71976;BME280;68326;52.124;5.424;2023-08-12T02:21:36;101672.69;;;18.86;100.00
71976;BME280;68326;52.124;5.424;2023-08-12T02:24:03;101665.41;;;18.89;100.00
71976;BME280;68326;52.124;5.424;2023-08-12T02:26:29;101668.63;;;18.93;100.00
71976;BME280;68326;52.124;5.424;2023-08-12T02:28:56;101662.44;;;18.94;100.00
71976;BME280;68326;52.124;5.424;2023-08-12T02:31:23;101662.19;;;18.97;100.00
71976;BME280;68326;52.124;5.424;2023-08-12T02:33:50;101660.19;;;19.01;100.00
71976;BME280;68326;52.124;5.424;2023-08-12T02:36:16;101660.19;;;19.01;100.00
71976;BME280;68326;52.124;5.424;2023-08-12T02:38:43;101653.94;;;19.02;100.00
71976;BME280;68326;52.124;5.424;2023-08-12T02:41:09;101655.75;;;19.01;100.00
71976;BME280;68326;52.124;5.424;2023-08-12T02:43:36;101657.31;;;19.04;100.00
71976;BME280;68326;52.124;5.424;2023-08-12T02:46:02;101651.19;;;19.03;100.00
71976;BME280;68326;52.124;5.424;2023-08-12T02:48:29;101649.19;;;19.07;100.00
71976;BME280;68326;52.124;5.424;2023-08-12T02:50:55;101643.91;;;19.07;100.00
71976;BME280;68326;52.124;5.424;2023-08-12T02:53:22;101648.00;;;19.11;100.00
71976;BME280;68326;52.124;5.424;2023-08-12T02:55:48;101642.72;;;19.11;100.00
71976;BME280;68326;52.124;5.424;2023-08-12T02:58:15;101644.41;;;19.12;100.00
71976;BME280;68326;52.124;5.424;2023-08-12T03:00:42;101641.66;;;19.13;100.00
71976;BME280;68326;52.124;5.424;2023-08-12T03:03:11;101643.22;;;19.16;100.00
71976;BME280;68326;52.124;5.424;2023-08-12T03:05:38;101632.66;;;19.16;100.00
71976;BME280;68326;52.124;5.424;2023-08-12T03:08:05;101618.63;;;19.15;100.00
71976;BME280;68326;52.124;5.424;2023-08-12T03:10:33;101626.31;;;19.19;100.00
71976;BME280;68326;52.124;5.424;2023-08-12T03:13:00;101621.03;;;19.19;100.00
71976;BME280;68326;52.124;5.424;2023-08-12T03:15:27;101620.81;;;19.22;100.00
71976;BME280;68326;52.124;5.424;2023-08-12T03:17:53;101620.56;;;19.25;100.00
71976;BME280;68326;52.124;5.424;2023-08-12T03:20:20;101615.19;;;19.26;100.00
71976;BME280;68326;52.124;5.424;2023-08-12T03:22:47;101618.56;;;19.28;100.00
71976;BME280;68326;52.124;5.424;2023-08-12T03:25:13;101608.72;;;19.30;100.00
71976;BME280;68326;52.124;5.424;2023-08-12T03:27:41;101606.72;;;19.34;100.00
71976;BME280;68326;52.124;5.424;2023-08-12T03:30:08;101616.19;;;19.37;100.00
71976;BME280;68326;52.124;5.424;2023-08-12T03:32:35;101610.66;;;19.40;100.00
71976;BME280;68326;52.124;5.424;2023-08-12T03:35:02;101608.84;;;19.40;100.00
71976;BME280;68326;52.124;5.424;2023-08-12T03:37:30;101590.38;;;19.40;100.00
71976;BME280;68326;52.124;5.424;2023-08-12T03:39:57;101596.38;;;19.42;100.00
71976;BME280;68326;52.124;5.424;2023-08-12T03:42:23;101592.91;;;19.42;100.00
71976;BME280;68326;52.124;5.424;2023-08-12T03:44:50;101591.97;;;19.43;100.00
71976;BME280;68326;52.124;5.424;2023-08-12T03:47:16;101581.28;;;19.44;100.00
71976;BME280;68326;52.124;5.424;2023-08-12T03:49:48;101581.16;;;19.46;100.00
71976;BME280;68326;52.124;5.424;2023-08-12T03:52:14;101581.88;;;19.48;100.00
71976;BME280;68326;52.124;5.424;2023-08-12T03:54:41;101588.88;;;19.49;100.00
71976;BME280;68326;52.124;5.424;2023-08-12T03:57:07;101581.06;;;19.47;100.00
71976;BME280;68326;52.124;5.424;2023-08-12T03:59:34;101582.72;;;19.48;100.00
71976;BME280;68326;52.124;5.424;2023-08-12T04:02:01;101574.81;;;19.48;100.00
71976;BME280;68326;52.124;5.424;2023-08-12T04:04:27;101570.50;;;19.47;100.00
71976;BME280;68326;52.124;5.424;2023-08-12T04:06:54;101559.94;;;19.47;100.00
71976;BME280;68326;52.124;5.424;2023-08-12T04:09:21;101566.16;;;19.46;100.00
71976;BME280;68326;52.124;5.424;2023-08-12T04:11:47;101569.66;;;19.47;100.00
71976;BME280;68326;52.124;5.424;2023-08-12T04:14:14;101562.69;;;19.46;100.00
71976;BME280;68326;52.124;5.424;2023-08-12T04:16:41;101554.75;;;19.46;100.00
71976;BME280;68326;52.124;5.424;2023-08-12T04:19:07;101555.59;;;19.46;100.00
71976;BME280;68326;52.124;5.424;2023-08-12T04:21:34;101556.31;;;19.48;100.00
71976;BME280;68326;52.124;5.424;2023-08-12T04:24:01;101550.09;;;19.49;100.00
71976;BME280;68326;52.124;5.424;2023-08-12T04:26:27;101552.50;;;19.52;100.00
71976;BME280;68326;52.124;5.424;2023-08-12T04:28:54;101551.19;;;19.58;100.00
71976;BME280;68326;52.124;5.424;2023-08-12T04:31:21;101554.31;;;19.63;100.00
71976;BME280;68326;52.124;5.424;2023-08-12T04:33:47;101550.59;;;19.66;100.00
71976;BME280;68326;52.124;5.424;2023-08-12T04:36:15;101548.56;;;19.69;100.00
71976;BME280;68326;52.124;5.424;2023-08-12T04:38:42;101548.34;;;19.72;100.00
71976;BME280;68326;52.124;5.424;2023-08-12T04:41:08;101536.59;;;19.77;100.00
71976;BME280;68326;52.124;5.424;2023-08-12T04:43:35;101536.34;;;19.80;100.00
71976;BME280;68326;52.124;5.424;2023-08-12T04:46:02;101525.56;;;19.83;100.00
71976;BME280;68326;52.124;5.424;2023-08-12T04:48:30;101519.75;;;19.89;100.00
71976;BME280;68326;52.124;5.424;2023-08-12T04:50:57;101514.38;;;19.90;100.00
71976;BME280;68326;52.124;5.424;2023-08-12T04:53:28;101506.44;;;19.90;100.00
71976;BME280;68326;52.124;5.424;2023-08-12T04:55:55;101507.03;;;19.94;100.00
71976;BME280;68326;52.124;5.424;2023-08-12T04:58:22;101501.66;;;19.95;100.00
71976;BME280;68326;52.124;5.424;2023-08-12T05:00:50;101495.38;;;19.96;100.00
71976;BME280;68326;52.124;5.424;2023-08-12T05:03:18;101498.88;;;19.97;100.00
71976;BME280;68326;52.124;5.424;2023-08-12T05:05:49;101492.47;;;20.00;100.00
71976;BME280;68326;52.124;5.424;2023-08-12T05:08:17;101490.94;;;19.97;100.00
71976;BME280;68326;52.124;5.424;2023-08-12T05:10:43;101486.38;;;19.99;100.00
71976;BME280;68326;52.124;5.424;2023-08-12T05:13:10;101479.16;;;20.01;100.00
71976;BME280;68326;52.124;5.424;2023-08-12T05:15:37;101492.38;;;20.01;100.00
71976;BME280;68326;52.124;5.424;2023-08-12T05:18:04;101491.44;;;20.02;100.00
71976;BME280;68326;52.124;5.424;2023-08-12T05:20:30;101498.50;;;20.02;100.00
71976;BME280;68326;52.124;5.424;2023-08-12T05:22:57;101497.53;;;20.03;100.00
71976;BME280;68326;52.124;5.424;2023-08-12T05:25:23;101494.91;;;20.03;100.00
71976;BME280;68326;52.124;5.424;2023-08-12T05:27:50;101498.25;;;20.05;100.00
71976;BME280;68326;52.124;5.424;2023-08-12T05:30:16;101495.63;;;20.05;100.00
71976;BME280;68326;52.124;5.424;2023-08-12T05:32:43;101502.72;;;20.04;100.00
71976;BME280;68326;52.124;5.424;2023-08-12T05:35:10;101498.25;;;20.05;100.00
71976;BME280;68326;52.124;5.424;2023-08-12T05:37:36;101496.34;;;20.07;100.00
71976;BME280;68326;52.124;5.424;2023-08-12T05:40:03;101504.16;;;20.08;100.00
71976;BME280;68326;52.124;5.424;2023-08-12T05:42:35;101498.00;;;20.08;100.00
71976;BME280;68326;52.124;5.424;2023-08-12T05:45:02;101498.88;;;20.08;100.00
71976;BME280;68326;52.124;5.424;2023-08-12T05:47:32;101487.44;;;20.08;100.00
71976;BME280;68326;52.124;5.424;2023-08-12T05:49:59;101500.78;;;20.06;100.00
71976;BME280;68326;52.124;5.424;2023-08-12T05:52:26;101495.50;;;20.06;100.00
71976;BME280;68326;52.124;5.424;2023-08-12T05:54:53;101498.16;;;20.06;100.00
71976;BME280;68326;52.124;5.424;2023-08-12T05:57:20;101497.44;;;20.04;100.00
71976;BME280;68326;52.124;5.424;2023-08-12T05:59:46;101495.72;;;20.03;100.00
71976;BME280;68326;52.124;5.424;2023-08-12T06:02:13;101491.44;;;20.02;100.00
71976;BME280;68326;52.124;5.424;2023-08-12T06:04:40;101490.72;;;20.00;100.00
71976;BME280;68326;52.124;5.424;2023-08-12T06:07:06;101487.19;;;20.00;100.00
71976;BME280;68326;52.124;5.424;2023-08-12T06:09:33;101490.81;;;19.99;100.00
71976;BME280;68326;52.124;5.424;2023-08-12T06:11:59;101494.56;;;19.96;100.00
71976;BME280;68326;52.124;5.424;2023-08-12T06:14:26;101494.56;;;19.96;100.00
71976;BME280;68326;52.124;5.424;2023-08-12T06:16:52;101489.38;;;19.94;100.00
71976;BME280;68326;52.124;5.424;2023-08-12T06:19:22;101495.38;;;19.96;100.00
71976;BME280;68326;52.124;5.424;2023-08-12T06:21:49;101482.44;;;19.93;100.00
71976;BME280;68326;52.124;5.424;2023-08-12T06:24:15;101482.56;;;19.92;100.00
71976;BME280;68326;52.124;5.424;2023-08-12T06:26:42;101488.06;;;19.89;100.00
71976;BME280;68326;52.124;5.424;2023-08-12T06:29:08;101496.34;;;19.84;100.00
71976;BME280;68326;52.124;5.424;2023-08-12T06:31:35;101493.13;;;19.81;100.00
71976;BME280;68326;52.124;5.424;2023-08-12T06:34:02;101501.41;;;19.76;100.00
71976;BME280;68326;52.124;5.424;2023-08-12T06:36:28;101498.03;;;19.74;100.00
71976;BME280;68326;52.124;5.424;2023-08-12T06:38:55;101498.91;;;19.74;100.00
71976;BME280;68326;52.124;5.424;2023-08-12T06:41:22;101498.19;;;19.72;100.00
71976;BME280;68326;52.124;5.424;2023-08-12T06:43:48;101497.31;;;19.72;100.00
71976;BME280;68326;52.124;5.424;2023-08-12T06:46:15;101499.13;;;19.71;100.00
71976;BME280;68326;52.124;5.424;2023-08-12T06:48:41;101499.13;;;19.71;100.00
71976;BME280;68326;52.124;5.424;2023-08-12T06:51:08;101491.22;;;19.71;100.00
71976;BME280;68326;52.124;5.424;2023-08-12T06:53:39;101486.75;;;19.72;100.00
71976;BME280;68326;52.124;5.424;2023-08-12T06:56:05;101480.03;;;19.68;100.00
71976;BME280;68326;52.124;5.424;2023-08-12T06:58:32;101475.69;;;19.67;100.00
71976;BME280;68326;52.124;5.424;2023-08-12T07:00:59;101477.50;;;19.66;100.00
71976;BME280;68326;52.124;5.424;2023-08-12T07:03:25;101475.81;;;19.65;100.00
71976;BME280;68326;52.124;5.424;2023-08-12T07:05:53;101472.59;;;19.62;100.00
71976;BME280;68326;52.124;5.424;2023-08-12T07:08:20;101470.78;;;19.62;100.00
71976;BME280;68326;52.124;5.424;2023-08-12T07:10:47;101478.69;;;19.62;100.00
71976;BME280;68326;52.124;5.424;2023-08-12T07:13:13;101474.97;;;19.65;100.00
71976;BME280;68326;52.124;5.424;2023-08-12T07:15:39;101473.31;;;19.64;100.00
71976;BME280;68326;52.124;5.424;2023-08-12T07:18:06;101468.88;;;19.64;100.00
71976;BME280;68326;52.124;5.424;2023-08-12T07:20:33;101463.59;;;19.64;100.00
71976;BME280;68326;52.124;5.424;2023-08-12T07:22:59;101461.78;;;19.65;100.00
71976;BME280;68326;52.124;5.424;2023-08-12T07:25:26;101457.22;;;19.67;100.00
71976;BME280;68326;52.124;5.424;2023-08-12T07:27:52;101454.56;;;19.67;100.00
71976;BME280;68326;52.124;5.424;2023-08-12T07:30:19;101462.38;;;19.68;100.00
71976;BME280;68326;52.124;5.424;2023-08-12T07:32:45;101446.53;;;19.68;100.00
71976;BME280;68326;52.124;5.424;2023-08-12T07:35:12;101443.91;;;19.68;100.00
71976;BME280;68326;52.124;5.424;2023-08-12T07:37:39;101447.38;;;19.69;100.00
71976;BME280;68326;52.124;5.424;2023-08-12T07:40:06;101439.69;;;19.66;100.00
71976;BME280;68326;52.124;5.424;2023-08-12T07:42:32;101441.63;;;19.64;100.00
71976;BME280;68326;52.124;5.424;2023-08-12T07:44:59;101438.00;;;19.65;100.00
71976;BME280;68326;52.124;5.424;2023-08-12T07:47:25;101435.38;;;19.65;100.00
71976;BME280;68326;52.124;5.424;2023-08-12T07:49:52;101435.63;;;19.62;100.00
71976;BME280;68326;52.124;5.424;2023-08-12T07:52:18;101439.81;;;19.64;100.00
71976;BME280;68326;52.124;5.424;2023-08-12T07:54:45;101445.31;;;19.61;100.00
71976;BME280;68326;52.124;5.424;2023-08-12T07:57:11;101440.66;;;19.65;100.00
71976;BME280;68326;52.124;5.424;2023-08-12T07:59:38;101441.38;;;19.67;100.00
71976;BME280;68326;52.124;5.424;2023-08-12T08:02:05;101443.19;;;19.66;100.00
71976;BME280;68326;52.124;5.424;2023-08-12T08:04:33;101445.09;;;19.64;100.00
71976;BME280;68326;52.124;5.424;2023-08-12T08:07:00;101447.63;;;19.66;100.00
71976;BME280;68326;52.124;5.424;2023-08-12T08:09:27;101445.94;;;19.65;100.00
71976;BME280;68326;52.124;5.424;2023-08-12T08:11:53;101446.75;;;19.65;100.00
71976;BME280;68326;52.124;5.424;2023-08-12T08:14:22;101442.19;;;19.67;100.00
71976;BME280;68326;52.124;5.424;2023-08-12T08:16:49;101438.84;;;19.65;100.00
71976;BME280;68326;52.124;5.424;2023-08-12T08:19:15;101446.53;;;19.68;100.00
71976;BME280;68326;52.124;5.424;2023-08-12T08:21:42;101447.28;;;19.70;100.00
71976;BME280;68326;52.124;5.424;2023-08-12T08:24:08;101448.94;;;19.71;100.00
71976;BME280;68326;52.124;5.424;2023-08-12T08:26:38;101439.22;;;19.72;100.00
71976;BME280;68326;52.124;5.424;2023-08-12T08:29:04;101446.19;;;19.73;100.00
71976;BME280;68326;52.124;5.424;2023-08-12T08:31:31;101440.91;;;19.73;100.00
71976;BME280;68326;52.124;5.424;2023-08-12T08:33:58;101445.72;;;19.79;100.00
71976;BME280;68326;52.124;5.424;2023-08-12T08:36:24;101443.69;;;19.83;100.00
71976;BME280;68326;52.124;5.424;2023-08-12T08:38:51;101454.81;;;19.86;100.00
71976;BME280;68326;52.124;5.424;2023-08-12T08:41:17;101453.72;;;19.89;100.00
71976;BME280;68326;52.124;5.424;2023-08-12T08:43:47;101458.06;;;19.90;100.00
71976;BME280;68326;52.124;5.424;2023-08-12T08:46:15;101458.16;;;19.88;100.00
71976;BME280;68326;52.124;5.424;2023-08-12T08:48:42;101455.53;;;19.88;100.00
71976;BME280;68326;52.124;5.424;2023-08-12T08:51:10;101461.41;;;19.92;100.00
71976;BME280;68326;52.124;5.424;2023-08-12T08:53:38;101463.94;;;19.93;100.00
71976;BME280;68326;52.124;5.424;2023-08-12T08:56:06;101468.63;;;19.90;100.00
71976;BME280;68326;52.124;5.424;2023-08-12T08:58:40;101463.44;;;19.88;100.00
71976;BME280;68326;52.124;5.424;2023-08-12T09:01:07;101463.44;;;19.88;100.00
71976;BME280;68326;52.124;5.424;2023-08-12T09:03:38;101467.91;;;19.88;100.00
71976;BME280;68326;52.124;5.424;2023-08-12T09:06:04;101475.47;;;19.81;100.00
71976;BME280;68326;52.124;5.424;2023-08-12T09:08:31;101488.19;;;19.53;100.00
71976;BME280;68326;52.124;5.424;2023-08-12T09:10:59;101492.34;;;19.33;100.00
71976;BME280;68326;52.124;5.424;2023-08-12T09:13:26;101500.50;;;19.19;100.00
71976;BME280;68326;52.124;5.424;2023-08-12T09:15:53;101497.72;;;18.98;100.00
71976;BME280;68326;52.124;5.424;2023-08-12T09:18:20;101506.06;;;18.81;100.00
71976;BME280;68326;52.124;5.424;2023-08-12T09:20:51;101508.44;;;18.84;100.00
71976;BME280;68326;52.124;5.424;2023-08-12T09:23:17;101496.34;;;18.81;100.00
71976;BME280;68326;52.124;5.424;2023-08-12T09:25:45;101489.50;;;18.79;100.00
71976;BME280;68326;52.124;5.424;2023-08-12T09:28:12;101482.03;;;18.72;100.00
71976;BME280;68326;52.124;5.424;2023-08-12T09:30:39;101484.03;;;18.69;100.00
71976;BME280;68326;52.124;5.424;2023-08-12T09:33:07;101497.69;;;18.74;100.00
71976;BME280;68326;52.124;5.424;2023-08-12T09:35:39;101497.91;;;18.84;100.00
71976;BME280;68326;52.124;5.424;2023-08-12T09:38:10;101501.59;;;18.81;100.00
71976;BME280;68326;52.124;5.424;2023-08-12T09:40:37;101510.47;;;18.80;100.00
71976;BME280;68326;52.124;5.424;2023-08-12T09:43:05;101518.69;;;18.75;100.00
71976;BME280;68326;52.124;5.424;2023-08-12T09:45:34;101512.94;;;18.70;100.00
71976;BME280;68326;52.124;5.424;2023-08-12T09:48:01;101518.06;;;18.72;100.00
71976;BME280;68326;52.124;5.424;2023-08-12T09:50:28;101521.88;;;18.68;100.00
71976;BME280;68326;52.124;5.424;2023-08-12T09:52:55;101513.88;;;18.69;100.00
71976;BME280;68326;52.124;5.424;2023-08-12T09:55:24;101533.00;;;18.84;100.00
71976;BME280;68326;52.124;5.424;2023-08-12T09:57:52;101536.00;;;18.80;100.00
71976;BME280;68326;52.124;5.424;2023-08-12T10:00:23;101552.88;;;18.77;100.00
71976;BME280;68326;52.124;5.424;2023-08-12T10:02:51;101545.78;;;18.78;100.00
71976;BME280;68326;52.124;5.424;2023-08-12T10:05:23;101542.41;;;18.75;100.00
71976;BME280;68326;52.124;5.424;2023-08-12T10:07:53;101545.59;;;18.81;100.00
71976;BME280;68326;52.124;5.424;2023-08-12T10:10:22;101544.31;;;18.98;100.00
71976;BME280;68326;52.124;5.424;2023-08-12T10:12:49;101533.38;;;19.15;100.00
71976;BME280;68326;52.124;5.424;2023-08-12T10:15:16;101532.81;;;19.34;100.00
71976;BME280;68326;52.124;5.424;2023-08-12T10:17:43;101515.78;;;19.49;100.00
71976;BME280;68326;52.124;5.424;2023-08-12T10:20:17;101515.31;;;19.67;100.00
71976;BME280;68326;52.124;5.424;2023-08-12T10:22:46;101524.19;;;19.54;100.00
71976;BME280;68326;52.124;5.424;2023-08-12T10:25:13;101525.72;;;19.57;100.00
71976;BME280;68326;52.124;5.424;2023-08-12T10:27:40;101533.81;;;19.78;100.00
71976;BME280;68326;52.124;5.424;2023-08-12T10:30:08;101539.13;;;19.89;100.00
71976;BME280;68326;52.124;5.424;2023-08-12T10:32:36;101524.44;;;20.19;98.98
71976;BME280;68326;52.124;5.424;2023-08-12T10:35:03;101530.72;;;20.39;96.56
71976;BME280;68326;52.124;5.424;2023-08-12T10:37:32;101527.47;;;20.47;94.19
71976;BME280;68326;52.124;5.424;2023-08-12T10:40:02;101513.47;;;20.67;93.57
71976;BME280;68326;52.124;5.424;2023-08-12T10:45:14;101520.56;;;20.67;89.89
71976;BME280;68326;52.124;5.424;2023-08-12T10:47:43;101527.38;;;20.37;91.03
71976;BME280;68326;52.124;5.424;2023-08-12T10:50:20;101534.31;;;20.49;92.55
71976;BME280;68326;52.124;5.424;2023-08-12T10:52:51;101536.94;;;20.61;93.86
71976;BME280;68326;52.124;5.424;2023-08-12T10:55:20;101533.28;;;20.73;93.69
71976;BME280;68326;52.124;5.424;2023-08-12T10:57:52;101528.16;;;20.92;90.69
71976;BME280;68326;52.124;5.424;2023-08-12T11:00:26;101529.31;;;21.21;90.85
71976;BME280;68326;52.124;5.424;2023-08-12T11:02:56;101539.44;;;21.36;91.41
71976;BME280;68326;52.124;5.424;2023-08-12T11:05:24;101527.69;;;21.29;90.84
71976;BME280;68326;52.124;5.424;2023-08-12T11:07:58;101536.16;;;21.44;88.77
71976;BME280;68326;52.124;5.424;2023-08-12T11:10:30;101528.59;;;21.61;86.00
71976;BME280;68326;52.124;5.424;2023-08-12T11:13:01;101533.41;;;21.76;82.72
71976;BME280;68326;52.124;5.424;2023-08-12T11:15:30;101526.88;;;21.81;83.49
71976;BME280;68326;52.124;5.424;2023-08-12T11:20:32;101532.34;;;21.58;82.60
71976;BME280;68326;52.124;5.424;2023-08-12T11:22:59;101528.28;;;21.54;82.03
71976;BME280;68326;52.124;5.424;2023-08-12T11:25:28;101524.09;;;21.51;82.16
71976;BME280;68326;52.124;5.424;2023-08-12T11:27:55;101513.97;;;21.66;80.27
71976;BME280;68326;52.124;5.424;2023-08-12T11:30:22;101511.75;;;21.71;81.90
71976;BME280;68326;52.124;5.424;2023-08-12T11:32:51;101517.50;;;21.76;80.32
71976;BME280;68326;52.124;5.424;2023-08-12T11:35:19;101523.84;;;21.95;81.40
71976;BME280;68326;52.124;5.424;2023-08-12T11:37:48;101527.13;;;21.77;77.63
71976;BME280;68326;52.124;5.424;2023-08-12T11:40:16;101517.09;;;21.81;73.43
71976;BME280;68326;52.124;5.424;2023-08-12T11:42:45;101527.00;;;21.89;75.06
71976;BME280;68326;52.124;5.424;2023-08-12T11:45:12;101524.22;;;21.81;73.52
71976;BME280;68326;52.124;5.424;2023-08-12T11:47:40;101531.34;;;21.90;74.71
71976;BME280;68326;52.124;5.424;2023-08-12T11:50:09;101518.03;;;22.20;72.96
71976;BME280;68326;52.124;5.424;2023-08-12T11:52:36;101520.06;;;22.48;74.58
71976;BME280;68326;52.124;5.424;2023-08-12T11:55:05;101516.31;;;22.70;75.54
71976;BME280;68326;52.124;5.424;2023-08-12T11:57:32;101516.84;;;22.83;72.95
71976;BME280;68326;52.124;5.424;2023-08-12T12:00:07;101526.47;;;22.45;72.13
71976;BME280;68326;52.124;5.424;2023-08-12T12:02:50;101521.06;;;22.47;74.78
71976;BME280;68326;52.124;5.424;2023-08-12T12:05:28;101516.84;;;22.73;76.04
71976;BME280;68326;52.124;5.424;2023-08-12T12:07:56;101513.78;;;22.78;73.09
71976;BME280;68326;52.124;5.424;2023-08-12T12:10:31;101521.88;;;22.86;72.87
71976;BME280;68326;52.124;5.424;2023-08-12T12:13:02;101525.53;;;22.85;70.59
71976;BME280;68326;52.124;5.424;2023-08-12T12:15:30;101529.84;;;22.76;70.87
71976;BME280;68326;52.124;5.424;2023-08-12T12:17:58;101525.66;;;22.74;72.40
71976;BME280;68326;52.124;5.424;2023-08-12T12:20:24;101526.34;;;22.66;68.62
71976;BME280;68326;52.124;5.424;2023-08-12T12:22:53;101526.94;;;22.70;68.02
71976;BME280;68326;52.124;5.424;2023-08-12T12:25:21;101522.31;;;22.62;70.22
71976;BME280;68326;52.124;5.424;2023-08-12T12:27:48;101522.31;;;22.72;68.27
71976;BME280;68326;52.124;5.424;2023-08-12T12:30:16;101529.56;;;22.89;68.44
71976;BME280;68326;52.124;5.424;2023-08-12T12:32:43;101530.41;;;22.99;66.42
71976;BME280;68326;52.124;5.424;2023-08-12T12:35:10;101532.91;;;23.11;67.18
71976;BME280;68326;52.124;5.424;2023-08-12T12:37:36;101532.75;;;23.22;67.59
71976;BME280;68326;52.124;5.424;2023-08-12T12:40:04;101537.75;;;23.35;63.44
71976;BME280;68326;52.124;5.424;2023-08-12T12:42:32;101538.88;;;23.32;61.46
71976;BME280;68326;52.124;5.424;2023-08-12T12:44:58;101531.75;;;23.33;63.52
71976;BME280;68326;52.124;5.424;2023-08-12T12:47:25;101527.94;;;23.35;61.66
71976;BME280;68326;52.124;5.424;2023-08-12T12:49:52;101527.25;;;23.33;60.18
71976;BME280;68326;52.124;5.424;2023-08-12T12:52:18;101531.47;;;23.36;60.84